sensor_id;sensor_type;location;lat;lon;timestamp;pressure;altitude;pressure_sealevel;temperature;humidity
34297;BME280;20564;42.902;25.336;2023-10-13T00:02:00;97654.22;;;8.86;95.83
34297;BME280;20564;42.902;25.336;2023-10-13T00:04:34;97652.88;;;8.80;96.26
34297;BME280;20564;42.902;25.336;2023-10-13T00:07:07;97655.66;;;8.79;96.41
34297;BME280;20564;42.902;25.336;2023-10-13T00:09:40;97645.50;;;8.74;96.62
34297;BME280;20564;42.902;25.336;2023-10-13T00:12:14;97649.81;;;8.75;95.95
34297;BME280;20564;42.902;25.336;2023-10-13T00:14:41;97653.13;;;8.77;96.32
34297;BME280;20564;42.902;25.336;2023-10-13T00:17:12;97644.78;;;8.72;96.39
34297;BME280;20564;42.902;25.336;2023-10-13T00:19:55;97643.00;;;8.73;97.23
34297;BME280;20564;42.902;25.336;2023-10-13T00:22:27;97649.19;;;8.72;96.83
34297;BME280;20564;42.902;25.336;2023-10-13T00:24:58;97647.63;;;8.69;97.18
34297;BME280;20564;42.902;25.336;2023-10-13T00:27:26;97646.81;;;8.68;97.18
34297;BME280;20564;42.902;25.336;2023-10-13T00:29:58;97636.66;;;8.64;97.22
34297;BME280;20564;42.902;25.336;2023-10-13T00:32:58;97642.38;;;8.58;97.10
34297;BME280;20564;42.902;25.336;2023-10-13T00:35:27;97631.88;;;8.58;97.65
34297;BME280;20564;42.902;25.336;2023-10-13T00:37:56;97634.03;;;8.53;97.66
34297;BME280;20564;42.902;25.336;2023-10-13T00:40:25;97630.44;;;8.54;97.71
34297;BME280;20564;42.902;25.336;2023-10-13T00:43:01;97632.34;;;8.52;97.67
34297;BME280;20564;42.902;25.336;2023-10-13T00:45:54;97628.19;;;8.49;97.17
34297;BME280;20564;42.902;25.336;2023-10-13T00:48:27;97628.19;;;8.49;97.73
34297;BME280;20564;42.902;25.336;2023-10-13T00:51:05;97627.34;;;8.49;97.29
34297;BME280;20564;42.902;25.336;2023-10-13T00:53:40;97620.75;;;8.43;97.68
34297;BME280;20564;42.902;25.336;2023-10-13T00:56:08;97630.28;;;8.44;97.18
34297;BME280;20564;42.902;25.336;2023-10-13T00:58:46;97625.66;;;8.48;97.51
34297;BME280;20564;42.902;25.336;2023-10-13T01:01:13;97617.31;;;8.42;97.77
34297;BME280;20564;42.902;25.336;2023-10-13T01:03:56;97618.13;;;8.43;97.93
34297;BME280;20564;42.902;25.336;2023-10-13T01:06:29;97621.72;;;8.42;97.68
34297;BME280;20564;42.902;25.336;2023-10-13T01:09:06;97623.50;;;8.41;96.96
34297;BME280;20564;42.902;25.336;2023-10-13T01:11:49;97615.94;;;8.37;97.30
34297;BME280;20564;42.902;25.336;2023-10-13T01:14:26;97623.50;;;8.41;97.51
34297;BME280;20564;42.902;25.336;2023-10-13T01:16:56;97608.97;;;8.37;97.04
34297;BME280;20564;42.902;25.336;2023-10-13T01:19:25;97609.84;;;8.36;97.31
34297;BME280;20564;42.902;25.336;2023-10-13T01:21:55;97619.66;;;8.34;96.87
34297;BME280;20564;42.902;25.336;2023-10-13T01:24:31;97608.78;;;8.28;97.66
34297;BME280;20564;42.902;25.336;2023-10-13T01:27:05;97631.66;;;8.26;97.72
34297;BME280;20564;42.902;25.336;2023-10-13T01:30:07;97623.06;;;8.24;97.98
34297;BME280;20564;42.902;25.336;2023-10-13T01:32:53;97625.78;;;8.22;97.99
34297;BME280;20564;42.902;25.336;2023-10-13T01:35:27;97626.63;;;8.22;98.31
34297;BME280;20564;42.902;25.336;2023-10-13T01:38:04;97630.22;;;8.21;98.04
34297;BME280;20564;42.902;25.336;2023-10-13T01:40:35;97629.50;;;8.19;97.82
34297;BME280;20564;42.902;25.336;2023-10-13T01:43:03;97637.47;;;8.18;98.14
34297;BME280;20564;42.902;25.336;2023-10-13T01:45:32;97631.25;;;8.19;97.94
34297;BME280;20564;42.902;25.336;2023-10-13T01:48:03;97635.81;;;8.17;97.89
34297;BME280;20564;42.902;25.336;2023-10-13T01:50:31;97631.75;;;8.13;98.44
34297;BME280;20564;42.902;25.336;2023-10-13T01:52:58;97639.09;;;8.08;98.91
34297;BME280;20564;42.902;25.336;2023-10-13T01:55:45;97644.34;;;8.08;99.74
34297;BME280;20564;42.902;25.336;2023-10-13T01:58:15;97641.72;;;8.08;99.23
34297;BME280;20564;42.902;25.336;2023-10-13T02:00:46;97628.59;;;8.08;98.93
34297;BME280;20564;42.902;25.336;2023-10-13T02:03:16;97634.72;;;8.08;99.49
34297;BME280;20564;42.902;25.336;2023-10-13T02:05:49;97636.47;;;8.08;99.03
34297;BME280;20564;42.902;25.336;2023-10-13T02:08:21;97636.59;;;8.06;99.15
34297;BME280;20564;42.902;25.336;2023-10-13T02:10:56;97634.94;;;8.05;99.25
34297;BME280;20564;42.902;25.336;2023-10-13T02:13:39;97630.75;;;8.03;99.23
34297;BME280;20564;42.902;25.336;2023-10-13T02:16:15;97634.41;;;8.00;98.34
34297;BME280;20564;42.902;25.336;2023-10-13T02:18:47;97644.81;;;8.02;98.51
34297;BME280;20564;42.902;25.336;2023-10-13T02:21:34;97635.59;;;7.96;98.88
34297;BME280;20564;42.902;25.336;2023-10-13T02:24:07;97641.91;;;7.93;98.57
34297;BME280;20564;42.902;25.336;2023-10-13T02:26:51;97636.56;;;7.95;98.53
34297;BME280;20564;42.902;25.336;2023-10-13T02:29:24;97636.44;;;7.96;98.28
34297;BME280;20564;42.902;25.336;2023-10-13T02:31:54;97643.59;;;7.94;98.59
34297;BME280;20564;42.902;25.336;2023-10-13T02:34:25;97643.81;;;7.91;98.50
34297;BME280;20564;42.902;25.336;2023-10-13T02:36:53;97637.94;;;7.88;98.66
34297;BME280;20564;42.902;25.336;2023-10-13T02:39:20;97631.66;;;7.90;98.86
34297;BME280;20564;42.902;25.336;2023-10-13T02:41:52;97630.91;;;7.88;98.69
34297;BME280;20564;42.902;25.336;2023-10-13T02:44:19;97630.22;;;7.86;98.30
34297;BME280;20564;42.902;25.336;2023-10-13T02:46:54;97630.22;;;7.86;97.93
34297;BME280;20564;42.902;25.336;2023-10-13T02:49:26;97624.97;;;7.86;98.02
34297;BME280;20564;42.902;25.336;2023-10-13T02:51:54;97624.00;;;7.87;97.77
34297;BME280;20564;42.902;25.336;2023-10-13T02:54:22;97613.88;;;7.83;98.38
34297;BME280;20564;42.902;25.336;2023-10-13T02:56:53;97623.75;;;7.79;98.43
34297;BME280;20564;42.902;25.336;2023-10-13T02:59:31;97625.63;;;7.77;98.25
34297;BME280;20564;42.902;25.336;2023-10-13T03:02:10;97632.03;;;7.73;98.01
34297;BME280;20564;42.902;25.336;2023-10-13T03:04:58;97632.88;;;7.73;98.37
34297;BME280;20564;42.902;25.336;2023-10-13T03:07:39;97632.03;;;7.73;98.27
34297;BME280;20564;42.902;25.336;2023-10-13T03:10:13;97633.22;;;7.69;97.78
34297;BME280;20564;42.902;25.336;2023-10-13T03:12:42;97627.59;;;7.62;98.99
34297;BME280;20564;42.902;25.336;2023-10-13T03:15:18;97633.66;;;7.63;99.11
34297;BME280;20564;42.902;25.336;2023-10-13T03:17:53;97633.88;;;7.60;99.01
34297;BME280;20564;42.902;25.336;2023-10-13T03:20:22;97631.16;;;7.61;99.07
34297;BME280;20564;42.902;25.336;2023-10-13T03:22:54;97626.75;;;7.62;99.11
34297;BME280;20564;42.902;25.336;2023-10-13T03:25:21;97626.75;;;7.62;98.81
34297;BME280;20564;42.902;25.336;2023-10-13T03:28:04;97632.94;;;7.61;98.56
34297;BME280;20564;42.902;25.336;2023-10-13T03:30:32;97636.81;;;7.55;98.54
34297;BME280;20564;42.902;25.336;2023-10-13T03:33:09;97643.72;;;7.56;98.91
34297;BME280;20564;42.902;25.336;2023-10-13T03:35:39;97639.09;;;7.60;98.81
34297;BME280;20564;42.902;25.336;2023-10-13T03:38:18;97644.56;;;7.57;98.76
34297;BME280;20564;42.902;25.336;2023-10-13T03:40:50;97644.19;;;7.50;99.33
34297;BME280;20564;42.902;25.336;2023-10-13T03:43:29;97647.84;;;7.47;99.38
34297;BME280;20564;42.902;25.336;2023-10-13T03:45:58;97645.03;;;7.51;99.22
34297;BME280;20564;42.902;25.336;2023-10-13T03:48:35;97647.34;;;7.42;99.84
34297;BME280;20564;42.902;25.336;2023-10-13T03:51:25;97648.41;;;7.40;99.97
34297;BME280;20564;42.902;25.336;2023-10-13T03:53:58;97651.84;;;7.40;99.99
34297;BME280;20564;42.902;25.336;2023-10-13T03:56:32;97644.97;;;7.39;100.00
34297;BME280;20564;42.902;25.336;2023-10-13T03:59:11;97650.69;;;7.44;99.99
34297;BME280;20564;42.902;25.336;2023-10-13T04:01:43;97647.97;;;7.46;99.68
34297;BME280;20564;42.902;25.336;2023-10-13T04:04:17;97652.59;;;7.42;99.73
34297;BME280;20564;42.902;25.336;2023-10-13T04:07:04;97651.97;;;7.39;100.00
34297;BME280;20564;42.902;25.336;2023-10-13T04:09:35;97652.19;;;7.36;99.97
34297;BME280;20564;42.902;25.336;2023-10-13T04:12:11;97651.25;;;7.37;100.00
34297;BME280;20564;42.902;25.336;2023-10-13T04:14:48;97654.91;;;7.34;100.00
34297;BME280;20564;42.902;25.336;2023-10-13T04:17:34;97654.91;;;7.34;99.37
34297;BME280;20564;42.902;25.336;2023-10-13T04:20:08;97652.50;;;7.31;100.00
34297;BME280;20564;42.902;25.336;2023-10-13T04:22:39;97650.94;;;7.29;99.88
34297;BME280;20564;42.902;25.336;2023-10-13T04:28:15;97644.56;;;7.20;100.00
34297;BME280;20564;42.902;25.336;2023-10-13T04:31:01;97644.69;;;7.18;100.00
34297;BME280;20564;42.902;25.336;2023-10-13T04:33:48;97642.19;;;7.17;100.00
34297;BME280;20564;42.902;25.336;2023-10-13T04:36:19;97645.72;;;7.16;100.00
34297;BME280;20564;42.902;25.336;2023-10-13T04:38:58;97640.50;;;7.16;100.00
34297;BME280;20564;42.902;25.336;2023-10-13T04:41:29;97643.84;;;7.18;100.00
34297;BME280;20564;42.902;25.336;2023-10-13T04:44:19;97643.72;;;7.19;100.00
34297;BME280;20564;42.902;25.336;2023-10-13T04:47:04;97642.91;;;7.19;100.00
34297;BME280;20564;42.902;25.336;2023-10-13T04:49:34;97649.09;;;7.18;100.00
34297;BME280;20564;42.902;25.336;2023-10-13T04:52:03;97655.03;;;7.20;100.00
34297;BME280;20564;42.902;25.336;2023-10-13T04:54:42;97657.66;;;7.20;100.00
34297;BME280;20564;42.902;25.336;2023-10-13T04:57:21;97649.72;;;7.21;100.00
34297;BME280;20564;42.902;25.336;2023-10-13T05:00:08;97651.38;;;7.22;100.00
34297;BME280;20564;42.902;25.336;2023-10-13T05:02:45;97663.50;;;7.23;100.00
34297;BME280;20564;42.902;25.336;2023-10-13T05:05:43;97659.84;;;7.26;100.00
34297;BME280;20564;42.902;25.336;2023-10-13T05:08:31;97667.28;;;7.32;100.00
34297;BME280;20564;42.902;25.336;2023-10-13T05:11:16;97670.81;;;7.31;100.00
34297;BME280;20564;42.902;25.336;2023-10-13T05:14:02;97680.38;;;7.32;100.00
34297;BME280;20564;42.902;25.336;2023-10-13T05:16:48;97682.16;;;7.32;100.00
34297;BME280;20564;42.902;25.336;2023-10-13T05:19:33;97688.22;;;7.32;100.00
34297;BME280;20564;42.902;25.336;2023-10-13T05:22:30;97687.16;;;7.35;100.00
34297;BME280;20564;42.902;25.336;2023-10-13T05:25:18;97690.41;;;7.38;100.00
34297;BME280;20564;42.902;25.336;2023-10-13T05:28:05;97688.41;;;7.42;100.00
34297;BME280;20564;42.902;25.336;2023-10-13T05:31:02;97689.88;;;7.46;100.00
34297;BME280;20564;42.902;25.336;2023-10-13T05:33:48;97693.72;;;7.53;100.00
34297;BME280;20564;42.902;25.336;2023-10-13T05:36:33;97692.66;;;7.56;100.00
34297;BME280;20564;42.902;25.336;2023-10-13T05:39:19;97690.25;;;7.65;100.00
34297;BME280;20564;42.902;25.336;2023-10-13T05:42:05;97693.47;;;7.69;100.00
34297;BME280;20564;42.902;25.336;2023-10-13T05:44:50;97693.97;;;7.74;100.00
34297;BME280;20564;42.902;25.336;2023-10-13T05:47:43;97712.84;;;7.79;100.00
34297;BME280;20564;42.902;25.336;2023-10-13T05:50:12;97707.97;;;7.86;100.00
34297;BME280;20564;42.902;25.336;2023-10-13T05:52:49;97716.16;;;7.94;100.00
34297;BME280;20564;42.902;25.336;2023-10-13T05:55:24;97717.13;;;8.04;100.00
34297;BME280;20564;42.902;25.336;2023-10-13T05:58:10;97718.75;;;8.18;100.00
34297;BME280;20564;42.902;25.336;2023-10-13T06:00:56;97726.44;;;8.32;100.00
34297;BME280;20564;42.902;25.336;2023-10-13T06:03:42;97721.88;;;8.47;100.00
34297;BME280;20564;42.902;25.336;2023-10-13T06:06:27;97718.50;;;8.69;100.00
34297;BME280;20564;42.902;25.336;2023-10-13T06:09:13;97716.88;;;8.90;100.00
34297;BME280;20564;42.902;25.336;2023-10-13T06:11:59;97723.56;;;9.17;100.00
34297;BME280;20564;42.902;25.336;2023-10-13T06:14:45;97733.38;;;9.49;100.00
34297;BME280;20564;42.902;25.336;2023-10-13T06:17:31;97730.47;;;9.85;100.00
34297;BME280;20564;42.902;25.336;2023-10-13T06:20:16;97725.03;;;10.21;100.00
34297;BME280;20564;42.902;25.336;2023-10-13T06:23:02;97733.34;;;10.69;100.00
34297;BME280;20564;42.902;25.336;2023-10-13T06:25:51;97734.88;;;11.14;100.00
34297;BME280;20564;42.902;25.336;2023-10-13T06:28:37;97723.41;;;11.55;100.00
34297;BME280;20564;42.902;25.336;2023-10-13T06:31:14;97728.56;;;11.97;100.00
34297;BME280;20564;42.902;25.336;2023-10-13T06:33:53;97735.56;;;12.37;100.00
34297;BME280;20564;42.902;25.336;2023-10-13T06:36:22;97732.91;;;12.75;100.00
34297;BME280;20564;42.902;25.336;2023-10-13T06:38:52;97731.31;;;13.12;100.00
34297;BME280;20564;42.902;25.336;2023-10-13T06:41:22;97728.72;;;13.49;98.23
34297;BME280;20564;42.902;25.336;2023-10-13T06:43:58;97730.00;;;13.82;96.72
34297;BME280;20564;42.902;25.336;2023-10-13T06:46:32;97736.63;;;14.14;94.54
34297;BME280;20564;42.902;25.336;2023-10-13T06:49:00;97732.22;;;14.50;94.01
34297;BME280;20564;42.902;25.336;2023-10-13T06:51:29;97727.88;;;14.85;89.40
34297;BME280;20564;42.902;25.336;2023-10-13T06:54:06;97722.81;;;15.17;87.18
34297;BME280;20564;42.902;25.336;2023-10-13T06:56:38;97714.06;;;15.51;85.34
34297;BME280;20564;42.902;25.336;2023-10-13T06:59:08;97721.50;;;15.82;82.21
34297;BME280;20564;42.902;25.336;2023-10-13T07:01:35;97717.78;;;16.09;80.28
34297;BME280;20564;42.902;25.336;2023-10-13T07:04:09;97728.63;;;16.40;76.05
34297;BME280;20564;42.902;25.336;2023-10-13T07:06:44;97722.69;;;16.71;75.52
34297;BME280;20564;42.902;25.336;2023-10-13T07:09:17;97716.06;;;16.91;74.50
34297;BME280;20564;42.902;25.336;2023-10-13T07:12:04;97718.38;;;17.10;72.31
34297;BME280;20564;42.902;25.336;2023-10-13T07:14:33;97720.34;;;17.25;72.35
34297;BME280;20564;42.902;25.336;2023-10-13T07:17:02;97718.31;;;17.43;71.04
34297;BME280;20564;42.902;25.336;2023-10-13T07:19:31;97718.38;;;17.74;69.43
34297;BME280;20564;42.902;25.336;2023-10-13T07:22:01;97713.09;;;18.05;69.57
34297;BME280;20564;42.902;25.336;2023-10-13T07:24:49;97712.91;;;18.38;67.47
34297;BME280;20564;42.902;25.336;2023-10-13T07:27:20;97704.28;;;18.59;67.62
34297;BME280;20564;42.902;25.336;2023-10-13T07:29:54;97700.63;;;18.83;66.76
34297;BME280;20564;42.902;25.336;2023-10-13T07:32:47;97702.69;;;19.11;64.72
34297;BME280;20564;42.902;25.336;2023-10-13T07:35:25;97692.41;;;19.37;63.93
34297;BME280;20564;42.902;25.336;2023-10-13T07:37:54;97686.91;;;19.54;62.86
34297;BME280;20564;42.902;25.336;2023-10-13T07:40:27;97682.31;;;19.77;62.88
34297;BME280;20564;42.902;25.336;2023-10-13T07:42:55;97679.88;;;19.97;62.51
34297;BME280;20564;42.902;25.336;2023-10-13T07:45:27;97686.59;;;20.29;61.33
34297;BME280;20564;42.902;25.336;2023-10-13T07:48:10;97684.88;;;20.58;60.08
34297;BME280;20564;42.902;25.336;2023-10-13T07:51:06;97674.34;;;20.78;58.57
34297;BME280;20564;42.902;25.336;2023-10-13T07:53:53;97667.75;;;21.02;57.78
34297;BME280;20564;42.902;25.336;2023-10-13T07:56:20;97669.50;;;21.16;55.72
34297;BME280;20564;42.902;25.336;2023-10-13T07:58:48;97664.63;;;21.26;54.61
34297;BME280;20564;42.902;25.336;2023-10-13T08:01:31;97653.00;;;21.40;55.04
34297;BME280;20564;42.902;25.336;2023-10-13T08:03:59;97656.81;;;21.59;51.38
34297;BME280;20564;42.902;25.336;2023-10-13T08:06:38;97650.72;;;21.85;50.74
34297;BME280;20564;42.902;25.336;2023-10-13T08:09:11;97639.66;;;22.08;49.46
34297;BME280;20564;42.902;25.336;2023-10-13T08:11:56;97634.78;;;22.19;49.10
34297;BME280;20564;42.902;25.336;2023-10-13T08:14:24;97648.41;;;22.30;48.12
34297;BME280;20564;42.902;25.336;2023-10-13T08:17:08;97647.63;;;22.50;47.11
34297;BME280;20564;42.902;25.336;2023-10-13T08:19:39;97631.13;;;22.73;47.19
34297;BME280;20564;42.902;25.336;2023-10-13T08:22:08;97635.22;;;22.88;45.19
34297;BME280;20564;42.902;25.336;2023-10-13T08:24:46;97640.22;;;23.05;45.41
34297;BME280;20564;42.902;25.336;2023-10-13T08:27:20;97635.66;;;23.12;44.84
34297;BME280;20564;42.902;25.336;2023-10-13T08:30:01;97636.03;;;23.29;45.21
34297;BME280;20564;42.902;25.336;2023-10-13T08:32:31;97643.91;;;23.30;43.56
34297;BME280;20564;42.902;25.336;2023-10-13T08:35:00;97634.34;;;23.48;42.75
34297;BME280;20564;42.902;25.336;2023-10-13T08:37:33;97640.88;;;23.65;42.84
34297;BME280;20564;42.902;25.336;2023-10-13T08:40:14;97634.66;;;23.85;41.89
34297;BME280;20564;42.902;25.336;2023-10-13T08:42:56;97639.56;;;23.88;39.97
34297;BME280;20564;42.902;25.336;2023-10-13T08:45:36;97642.91;;;23.90;40.30
34297;BME280;20564;42.902;25.336;2023-10-13T08:48:05;97646.69;;;23.75;39.49
34297;BME280;20564;42.902;25.336;2023-10-13T08:50:51;97643.41;;;23.67;40.10
34297;BME280;20564;42.902;25.336;2023-10-13T08:53:28;97636.75;;;23.76;40.02
34297;BME280;20564;42.902;25.336;2023-10-13T08:56:09;97641.69;;;23.86;40.03
34297;BME280;20564;42.902;25.336;2023-10-13T08:58:40;97647.59;;;24.01;39.58
34297;BME280;20564;42.902;25.336;2023-10-13T09:04:08;97644.13;;;24.32;38.85
34297;BME280;20564;42.902;25.336;2023-10-13T09:07:03;97646.34;;;24.42;38.44
34297;BME280;20564;42.902;25.336;2023-10-13T09:14:44;97647.19;;;24.67;37.63
34297;BME280;20564;42.902;25.336;2023-10-13T09:17:29;97644.81;;;24.84;37.83
34297;BME280;20564;42.902;25.336;2023-10-13T09:20:07;97631.88;;;24.93;36.74
34297;BME280;20564;42.902;25.336;2023-10-13T09:22:53;97633.69;;;24.99;37.30
34297;BME280;20564;42.902;25.336;2023-10-13T09:25:34;97639.22;;;25.04;37.04
34297;BME280;20564;42.902;25.336;2023-10-13T09:28:14;97632.34;;;25.08;36.71
34297;BME280;20564;42.902;25.336;2023-10-13T09:30:49;97639.28;;;25.22;36.81
34297;BME280;20564;42.902;25.336;2023-10-13T09:33:29;97638.69;;;25.20;35.59
34297;BME280;20564;42.902;25.336;2023-10-13T09:36:00;97637.34;;;25.30;34.99
34297;BME280;20564;42.902;25.336;2023-10-13T09:38:28;97633.53;;;25.37;35.33
34297;BME280;20564;42.902;25.336;2023-10-13T09:40:56;97628.81;;;25.51;35.07
34297;BME280;20564;42.902;25.336;2023-10-13T09:43:25;97621.50;;;25.58;34.69
34297;BME280;20564;42.902;25.336;2023-10-13T09:46:01;97616.72;;;25.60;34.73
34297;BME280;20564;42.902;25.336;2023-10-13T09:48:46;97619.78;;;25.45;34.39
34297;BME280;20564;42.902;25.336;2023-10-13T09:51:16;97620.81;;;25.26;35.03
34297;BME280;20564;42.902;25.336;2023-10-13T09:53:56;97623.03;;;25.11;36.21
34297;BME280;20564;42.902;25.336;2023-10-13T09:56:38;97622.63;;;25.07;35.75
34297;BME280;20564;42.902;25.336;2023-10-13T09:59:24;97620.75;;;25.08;34.08
34297;BME280;20564;42.902;25.336;2023-10-13T10:02:04;97623.25;;;25.09;34.38
34297;BME280;20564;42.902;25.336;2023-10-13T10:04:36;97606.44;;;25.14;34.59
34297;BME280;20564;42.902;25.336;2023-10-13T10:07:28;97611.69;;;25.27;34.38
34297;BME280;20564;42.902;25.336;2023-10-13T10:09:57;97604.13;;;25.36;34.07
34297;BME280;20564;42.902;25.336;2023-10-13T10:15:27;97614.59;;;25.81;33.40
34297;BME280;20564;42.902;25.336;2023-10-13T10:17:57;97609.78;;;26.01;35.22
34297;BME280;20564;42.902;25.336;2023-10-13T10:20:32;97604.25;;;26.26;33.61
34297;BME280;20564;42.902;25.336;2023-10-13T10:23:07;97596.88;;;26.33;32.70
34297;BME280;20564;42.902;25.336;2023-10-13T10:25:48;97592.25;;;26.52;33.05
34297;BME280;20564;42.902;25.336;2023-10-13T10:28:18;97590.50;;;26.69;32.21
34297;BME280;20564;42.902;25.336;2023-10-13T10:30:46;97596.38;;;26.66;31.72
34297;BME280;20564;42.902;25.336;2023-10-13T10:33:13;97588.38;;;26.60;32.11
34297;BME280;20564;42.902;25.336;2023-10-13T10:35:58;97589.84;;;26.44;32.15
34297;BME280;20564;42.902;25.336;2023-10-13T10:38:25;97592.41;;;26.39;33.59
34297;BME280;20564;42.902;25.336;2023-10-13T10:40:59;97596.88;;;26.33;33.69
34297;BME280;20564;42.902;25.336;2023-10-13T10:43:28;97587.34;;;26.31;34.03
34297;BME280;20564;42.902;25.336;2023-10-13T10:46:13;97589.06;;;26.13;32.49
34297;BME280;20564;42.902;25.336;2023-10-13T10:48:46;97594.91;;;26.10;33.37
34297;BME280;20564;42.902;25.336;2023-10-13T10:51:23;97591.63;;;26.08;32.50
34297;BME280;20564;42.902;25.336;2023-10-13T10:53:55;97595.19;;;26.20;32.51
34297;BME280;20564;42.902;25.336;2023-10-13T10:56:37;97598.47;;;26.23;33.13
34297;BME280;20564;42.902;25.336;2023-10-13T10:59:06;97586.28;;;26.32;32.68
34297;BME280;20564;42.902;25.336;2023-10-13T11:01:51;97580.09;;;26.43;33.99
34297;BME280;20564;42.902;25.336;2023-10-13T11:04:19;97586.91;;;26.34;34.30
34297;BME280;20564;42.902;25.336;2023-10-13T11:06:56;97585.56;;;26.25;33.69
34297;BME280;20564;42.902;25.336;2023-10-13T11:12:09;97587.22;;;25.95;35.34
34297;BME280;20564;42.902;25.336;2023-10-13T11:14:44;97589.75;;;25.79;36.90
34297;BME280;20564;42.902;25.336;2023-10-13T11:17:24;97583.44;;;25.66;35.99
34297;BME280;20564;42.902;25.336;2023-10-13T11:19:53;97574.84;;;25.58;36.04
34297;BME280;20564;42.902;25.336;2023-10-13T11:22:22;97580.75;;;25.66;37.11
34297;BME280;20564;42.902;25.336;2023-10-13T11:25:08;97584.38;;;25.79;36.35
34297;BME280;20564;42.902;25.336;2023-10-13T11:27:40;97571.78;;;26.03;35.59
34297;BME280;20564;42.902;25.336;2023-10-13T11:30:12;97578.88;;;26.15;35.09
34297;BME280;20564;42.902;25.336;2023-10-13T11:32:42;97580.25;;;26.18;35.56
34297;BME280;20564;42.902;25.336;2023-10-13T11:35:10;97576.81;;;26.29;35.07
34297;BME280;20564;42.902;25.336;2023-10-13T11:37:50;97575.28;;;26.45;35.06
34297;BME280;20564;42.902;25.336;2023-10-13T11:40:38;97568.72;;;26.41;34.68
34297;BME280;20564;42.902;25.336;2023-10-13T11:46:26;97553.38;;;26.65;34.17
34297;BME280;20564;42.902;25.336;2023-10-13T11:49:06;97554.56;;;26.69;35.01
34297;BME280;20564;42.902;25.336;2023-10-13T11:51:40;97546.81;;;26.73;34.00
34297;BME280;20564;42.902;25.336;2023-10-13T11:54:13;97541.41;;;26.73;34.47
34297;BME280;20564;42.902;25.336;2023-10-13T11:56:44;97551.63;;;26.71;34.03
34297;BME280;20564;42.902;25.336;2023-10-13T11:59:11;97556.34;;;26.63;35.14
34297;BME280;20564;42.902;25.336;2023-10-13T12:01:48;97554.56;;;26.69;34.87
34297;BME280;20564;42.902;25.336;2023-10-13T12:04:35;97551.84;;;26.69;34.79
34297;BME280;20564;42.902;25.336;2023-10-13T12:07:08;97553.53;;;26.70;34.18
34297;BME280;20564;42.902;25.336;2023-10-13T12:09:45;97558.44;;;26.61;34.42
34297;BME280;20564;42.902;25.336;2023-10-13T12:12:27;97555.78;;;26.43;34.00
34297;BME280;20564;42.902;25.336;2023-10-13T12:14:55;97552.22;;;26.49;35.63
34297;BME280;20564;42.902;25.336;2023-10-13T12:17:28;97547.63;;;26.50;34.45
34297;BME280;20564;42.902;25.336;2023-10-13T12:20:05;97544.09;;;26.49;33.94
34297;BME280;20564;42.902;25.336;2023-10-13T12:22:37;97542.31;;;26.43;33.94
34297;BME280;20564;42.902;25.336;2023-10-13T12:25:09;97540.56;;;26.37;34.18
34297;BME280;20564;42.902;25.336;2023-10-13T12:27:53;97547.31;;;26.16;34.84
34297;BME280;20564;42.902;25.336;2023-10-13T12:30:24;97543.88;;;26.09;35.90
34297;BME280;20564;42.902;25.336;2023-10-13T12:33:21;97545.97;;;26.07;36.26
34297;BME280;20564;42.902;25.336;2023-10-13T12:36:01;97545.16;;;26.06;35.84
34297;BME280;20564;42.902;25.336;2023-10-13T12:38:40;97539.66;;;26.01;35.34
34297;BME280;20564;42.902;25.336;2023-10-13T12:41:15;97545.25;;;26.00;34.99
34297;BME280;20564;42.902;25.336;2023-10-13T12:44:03;97543.78;;;26.04;35.70
34297;BME280;20564;42.902;25.336;2023-10-13T12:46:49;97536.50;;;26.04;35.20
34297;BME280;20564;42.902;25.336;2023-10-13T12:49:35;97545.25;;;26.00;35.12
34297;BME280;20564;42.902;25.336;2023-10-13T12:52:10;97540.50;;;26.13;35.25
34297;BME280;20564;42.902;25.336;2023-10-13T12:54:48;97537.34;;;26.28;35.50
34297;BME280;20564;42.902;25.336;2023-10-13T12:57:28;97537.00;;;26.25;35.92
34297;BME280;20564;42.902;25.336;2023-10-13T12:59:56;97539.66;;;26.13;36.44
34297;BME280;20564;42.902;25.336;2023-10-13T13:02:24;97544.22;;;26.01;36.28
34297;BME280;20564;42.902;25.336;2023-10-13T13:04:56;97552.84;;;25.91;38.22
34297;BME280;20564;42.902;25.336;2023-10-13T13:07:29;97546.16;;;25.63;37.09
34297;BME280;20564;42.902;25.336;2023-10-13T13:09:56;97549.16;;;25.55;38.57
34297;BME280;20564;42.902;25.336;2023-10-13T13:12:27;97542.13;;;25.54;37.71
34297;BME280;20564;42.902;25.336;2023-10-13T13:14:57;97540.84;;;25.57;38.57
34297;BME280;20564;42.902;25.336;2023-10-13T13:17:24;97540.50;;;25.53;37.34
34297;BME280;20564;42.902;25.336;2023-10-13T13:19:51;97541.75;;;25.50;37.88
34297;BME280;20564;42.902;25.336;2023-10-13T13:22:18;97544.69;;;25.49;39.03
34297;BME280;20564;42.902;25.336;2023-10-13T13:24:47;97554.28;;;25.45;39.08
34297;BME280;20564;42.902;25.336;2023-10-13T13:27:15;97547.00;;;25.45;38.88
34297;BME280;20564;42.902;25.336;2023-10-13T13:29:47;97550.09;;;25.49;38.36
34297;BME280;20564;42.902;25.336;2023-10-13T13:32:17;97547.84;;;25.46;38.26
34297;BME280;20564;42.902;25.336;2023-10-13T13:34:51;97546.94;;;25.34;38.62
34297;BME280;20564;42.902;25.336;2023-10-13T13:37:25;97544.84;;;25.17;38.30
34297;BME280;20564;42.902;25.336;2023-10-13T13:39:56;97548.44;;;25.11;38.75
34297;BME280;20564;42.902;25.336;2023-10-13T13:42:23;97553.47;;;25.01;39.58
34297;BME280;20564;42.902;25.336;2023-10-13T13:44:50;97555.66;;;24.92;39.05
34297;BME280;20564;42.902;25.336;2023-10-13T13:47:18;97552.50;;;24.77;39.23
34297;BME280;20564;42.902;25.336;2023-10-13T13:49:45;97550.91;;;24.69;39.26
34297;BME280;20564;42.902;25.336;2023-10-13T13:52:22;97557.59;;;24.60;40.15
34297;BME280;20564;42.902;25.336;2023-10-13T13:55:00;97551.47;;;24.53;39.65
34297;BME280;20564;42.902;25.336;2023-10-13T13:57:29;97551.47;;;24.53;40.10
34297;BME280;20564;42.902;25.336;2023-10-13T13:59:59;97551.41;;;24.60;39.38